.
WxDataArchive / Data Records for 2008-08-27
2008-08-26 August 2008 2008-08-28

Data Records for Wednesday, 27 August 2008

Time	Temp	Chill	HIndex	Humid	Dewpt	 Wind 	HiWind	WindDir	Rain 	Barom 
-----	----	-----	------	-----	-----	------	------	-------	-----	----- 
00:00	61.2	61.2	61.2	83	56.0	0	2	45	0.00	29.921 
00:05	61.2	61.2	61.2	83	56.0	0	1	45	0.00	29.917 
00:10	61.0	61.0	61.0	84	56.1	0	1	45	0.00	29.917 
00:15	61.0	61.0	61.0	84	56.1	0	2	45	0.00	29.915 
00:20	60.9	60.9	60.9	84	56.0	0	2	45	0.00	29.914 
00:25	60.9	60.9	60.9	84	56.0	0	1	45	0.00	29.914 
00:30	60.9	60.9	60.9	85	56.4	0	1	45	0.00	29.914 
00:35	60.9	60.9	60.9	85	56.4	0	3	68	0.00	29.913 
00:40	60.9	60.9	60.9	85	56.4	0	2	68	0.00	29.913 
00:45	60.9	60.9	60.9	85	56.4	1	3	68	0.00	29.910 
00:50	60.9	60.9	60.9	85	56.4	1	3	112	0.00	29.910 
00:55	61.0	61.0	61.0	85	56.5	0	3	112	0.00	29.909 
01:00	61.0	61.0	61.0	85	56.5	0	3	90	0.00	29.908 
01:05	61.0	61.0	61.0	85	56.5	0	3	90	0.00	29.906 
01:10	61.0	61.0	61.0	86	56.8	0	1	90	0.00	29.906 
01:15	61.0	61.0	61.0	86	56.8	0	3	90	0.00	29.904 
01:20	61.0	61.0	61.0	86	56.8	1	3	112	0.00	29.903 
01:25	61.2	61.2	61.2	86	57.0	1	4	112	0.00	29.903 
01:30	61.2	61.2	61.2	86	57.0	1	4	112	0.00	29.901 
01:35	61.3	61.3	61.3	86	57.1	0	2	112	0.00	29.899 
01:40	61.3	61.3	61.3	86	57.1	0	2	112	0.00	29.898 
01:45	61.3	61.3	61.3	87	57.4	1	4	112	0.00	29.898 
01:50	61.3	61.3	61.3	87	57.4	1	5	112	0.00	29.897 
01:55	61.3	61.3	61.3	87	57.4	0	3	90	0.00	29.896 
02:00	61.3	61.3	61.3	87	57.4	1	3	90	0.00	29.895 
02:05	61.3	61.3	61.3	87	57.4	1	3	90	0.00	29.892 
02:10	61.3	61.3	61.3	87	57.4	0	1	90	0.00	29.891 
02:15	61.3	61.3	61.3	88	57.7	1	4	90	0.00	29.891 
02:20	61.3	61.3	61.3	88	57.7	1	4	90	0.00	29.891 
02:25	61.3	61.3	61.3	88	57.7	1	3	90	0.00	29.890 
02:30	61.3	61.3	61.3	88	57.7	1	3	90	0.00	29.890 
02:35	61.3	61.3	61.3	88	57.7	2	6	90	0.00	29.890 
02:40	61.3	61.3	61.3	88	57.7	1	4	68	0.00	29.890 
02:45	61.2	61.2	61.2	88	57.6	1	4	112	0.00	29.889 
02:50	61.2	61.2	61.2	88	57.6	1	4	112	0.00	29.889 
02:55	61.2	61.2	61.2	89	57.9	1	3	112	0.00	29.889 
03:00	61.2	61.2	61.2	89	57.9	1	4	112	0.00	29.889 
03:05	61.0	61.0	61.0	89	57.7	1	3	112	0.00	29.890 
03:10	61.0	61.0	61.0	89	57.7	1	3	112	0.00	29.890 
03:15	61.0	61.0	61.0	89	57.7	1	3	112	0.00	29.891 
03:20	60.9	60.9	60.9	89	57.6	0	2	112	0.00	29.891 
03:25	60.9	60.9	60.9	90	57.9	1	4	112	0.00	29.890 
03:30	60.9	60.9	60.9	90	57.9	1	4	112	0.00	29.889 
03:35	60.7	60.7	60.7	90	57.7	1	3	112	0.00	29.888 
03:40	60.7	60.7	60.7	90	57.7	1	3	112	0.00	29.889 
03:45	60.7	60.7	60.7	90	57.7	1	5	68	0.00	29.888 
03:50	60.5	60.5	60.5	90	57.5	0	2	112	0.00	29.888 
03:55	60.5	60.5	60.5	90	57.5	1	2	112	0.00	29.887 
04:00	60.5	60.5	60.5	91	57.9	0	1	112	0.00	29.886 
04:05	60.4	60.4	60.4	91	57.8	0	3	112	0.00	29.887 
04:10	60.4	60.4	60.4	91	57.8	1	3	112	0.00	29.890 
04:15	60.4	60.4	60.4	91	57.8	1	4	112	0.00	29.889 
04:20	60.4	60.4	60.4	91	57.8	1	3	90	0.00	29.886 
04:25	60.2	60.2	60.2	91	57.6	1	3	90	0.00	29.882 
04:30	60.2	60.2	60.2	91	57.6	0	3	90	0.00	29.883 
04:35	60.1	60.1	60.1	91	57.5	0	2	90	0.00	29.882 
04:40	60.1	60.1	60.1	91	57.5	0	1	90	0.00	29.884 
04:45	60.1	60.1	60.1	92	57.8	0	2	90	0.00	29.882 
04:50	59.9	59.9	59.9	92	57.6	0	2	90	0.00	29.881 
04:55	59.9	59.9	59.9	92	57.6	0	3	90	0.00	29.882 
05:00	59.9	59.9	59.9	92	57.6	1	4	90	0.00	29.882 
05:05	59.9	59.9	59.9	92	57.6	1	3	135	0.00	29.884 
05:10	59.9	59.9	59.9	92	57.6	0	2	135	0.00	29.883 
05:15	59.8	59.8	59.8	92	57.5	0	2	135	0.00	29.886 
05:20	59.8	59.8	59.8	92	57.5	0	1	135	0.00	29.887 
05:25	59.8	59.8	59.8	92	57.5	0	0	---	0.00	29.887 
05:30	59.6	59.6	59.6	92	57.3	0	1	135	0.00	29.886 
05:35	59.6	59.6	59.6	92	57.3	0	1	135	0.00	29.886 
05:40	59.6	59.6	59.6	93	57.6	0	1	135	0.00	29.890 
05:45	59.6	59.6	59.6	93	57.6	0	1	135	0.00	29.889 
05:50	59.6	59.6	59.6	93	57.6	0	1	135	0.00	29.889 
05:55	59.6	59.6	59.6	93	57.6	0	2	135	0.00	29.891 
06:00	59.6	59.6	59.6	93	57.6	0	1	135	0.00	29.890 
06:05	59.8	59.8	59.8	93	57.8	0	1	135	0.00	29.894 
06:10	59.8	59.8	59.8	93	57.8	0	0	---	0.00	29.896 
06:15	59.8	59.8	59.8	93	57.8	0	0	---	0.00	29.897 
06:20	59.8	59.8	59.8	93	57.8	0	0	---	0.00	29.897 
06:25	59.9	59.9	59.9	93	57.9	0	1	135	0.00	29.899 
06:30	60.1	60.1	60.1	94	58.4	0	1	135	0.00	29.903 
06:35	60.4	60.4	60.4	94	58.7	0	2	135	0.00	29.903 
06:40	60.5	60.5	60.5	94	58.8	0	2	135	0.00	29.901 
06:45	60.9	60.9	60.9	94	59.2	1	2	135	0.00	29.902 
06:50	61.2	61.2	61.2	93	59.2	1	3	112	0.00	29.901 
06:55	61.5	61.5	61.5	93	59.5	1	4	112	0.00	29.902 
07:00	61.8	61.8	61.8	93	59.8	0	3	112	0.00	29.901 
07:05	62.1	62.1	62.1	92	59.7	1	2	112	0.00	29.909 
07:10	62.4	62.4	62.4	92	60.0	1	2	112	0.00	29.910 
07:15	62.9	62.9	62.9	91	60.2	0	2	90	0.00	29.907 
07:20	63.4	63.4	63.4	90	60.4	1	5	90	0.00	29.907 
07:25	63.7	63.7	63.7	89	60.4	0	3	90	0.00	29.907 
07:30	64.2	64.2	64.2	88	60.6	1	3	90	0.00	29.907 
07:35	64.7	64.7	64.7	86	60.4	0	2	90	0.00	29.906 
07:40	65.2	65.2	65.2	85	60.6	1	2	90	0.00	29.905 
07:45	65.5	65.5	65.5	83	60.2	2	5	112	0.00	29.904 
07:50	65.6	65.6	65.6	83	60.3	1	5	112	0.00	29.908 
07:55	65.6	65.6	65.6	82	59.9	1	4	112	0.00	29.908 
08:00	65.8	65.8	65.8	81	59.8	2	6	90	0.00	29.907 
08:05	65.8	65.8	65.8	81	59.8	2	6	112	0.00	29.909 
08:10	66.0	66.0	66.0	81	60.0	1	4	90	0.00	29.909 
08:15	66.0	66.0	66.0	81	60.0	1	4	90	0.00	29.906 
08:20	66.4	66.4	66.4	81	60.4	0	1	90	0.00	29.904 
08:25	66.8	66.8	66.8	78	59.7	1	3	90	0.00	29.907 
08:30	67.1	67.1	67.1	78	60.0	2	6	112	0.00	29.905 
08:35	67.4	67.4	67.4	76	59.6	2	4	90	0.00	29.900 
08:40	67.4	67.4	67.4	75	59.2	3	6	112	0.00	29.899 
08:45	67.8	67.8	67.8	75	59.6	2	4	112	0.00	29.901 
08:50	68.4	68.4	68.4	74	59.8	1	4	112	0.00	29.904 
08:55	68.8	68.8	68.8	73	59.8	2	6	90	0.00	29.905 
09:00	69.1	69.1	69.1	72	59.7	2	4	90	0.00	29.906 
09:05	69.8	69.8	69.8	69	59.2	2	5	90	0.00	29.906 
09:10	70.1	70.1	70.1	69	59.4	2	5	90	0.00	29.905 
09:15	70.4	70.4	70.4	70	60.1	1	5	112	0.00	29.902 
09:20	70.9	70.9	70.9	68	59.8	2	5	112	0.00	29.901 
09:25	71.1	71.1	71.1	67	59.6	2	5	90	0.00	29.902 
09:30	71.8	71.8	71.8	67	60.2	1	4	90	0.00	29.905 
09:35	72.3	72.3	72.3	65	59.9	2	4	90	0.00	29.905 
09:40	72.5	72.5	72.5	64	59.6	2	4	90	0.00	29.901 
09:45	72.8	72.8	72.8	65	60.3	1	4	90	0.00	29.904 
09:50	73.5	73.5	73.5	62	59.7	1	5	112	0.00	29.906 
09:55	74.0	74.0	74.0	61	59.7	2	4	90	0.00	29.905 
10:00	74.4	74.4	74.4	62	60.5	1	5	112	0.00	29.905 
10:05	74.6	74.6	74.6	61	60.2	2	4	112	0.00	29.905 
10:10	74.9	74.9	74.9	62	61.0	1	5	112	0.00	29.903 
10:15	75.4	75.4	77.6	59	60.1	1	4	112	0.00	29.903 
10:20	76.0	76.0	78.0	59	60.6	1	4	90	0.00	29.903 
10:25	76.3	76.3	78.3	57	59.9	2	5	112	0.00	29.903 
10:30	76.5	76.5	78.4	58	60.6	2	5	90	0.00	29.903 
10:35	76.7	76.7	78.5	59	61.3	2	5	112	0.00	29.905 
10:40	77.2	77.2	78.9	56	60.3	1	6	112	0.00	29.902 
10:45	77.7	77.7	79.3	56	60.7	2	4	112	0.00	29.896 
10:50	78.3	78.3	79.7	54	60.3	2	5	90	0.00	29.895 
10:55	78.6	78.6	79.9	54	60.5	1	5	68	0.00	29.892 
11:00	78.5	78.5	79.8	54	60.4	3	6	90	0.00	29.891 
11:05	78.8	78.8	79.9	52	59.7	2	5	90	0.00	29.890 
11:10	79.4	79.4	80.5	52	60.2	2	5	90	0.00	29.890 
11:15	79.6	79.6	80.6	52	60.4	1	6	112	0.00	29.891 
11:20	79.8	79.8	80.5	49	58.9	2	6	112	0.00	29.891 
11:25	80.1	80.1	80.9	50	59.8	2	6	112	0.00	29.891 
11:30	80.5	80.5	81.3	50	60.1	2	4	90	0.00	29.891 
11:35	80.7	80.7	81.1	47	58.6	3	7	112	0.00	29.889 
11:40	80.9	80.9	81.4	48	59.3	2	4	112	0.00	29.888 
11:45	81.2	81.2	81.5	46	58.4	2	5	112	0.00	29.888 
11:50	81.6	81.6	81.8	46	58.8	2	7	90	0.00	29.887 
11:55	81.6	81.6	81.8	46	58.8	2	5	90	0.00	29.887 
12:00	81.8	81.8	82.0	46	59.0	2	5	90	0.00	29.881 
12:05	81.8	81.8	81.9	45	58.4	3	6	90	0.00	29.880 
12:10	81.8	81.8	81.9	45	58.4	3	7	90	0.00	29.878 
12:15	82.0	82.0	82.1	45	58.5	2	5	112	0.00	29.876 
12:20	82.4	82.4	82.3	44	58.3	1	5	112	0.00	29.874 
12:25	83.0	83.0	82.8	43	58.2	2	5	112	0.00	29.873 
12:30	83.2	83.2	83.1	44	59.0	2	5	90	0.00	29.872 
12:35	83.0	83.0	82.8	43	58.2	3	7	90	0.00	29.872 
12:40	83.0	83.0	82.6	42	57.5	2	5	90	0.00	29.870 
12:45	83.2	83.2	83.0	43	58.3	2	5	90	0.00	29.869 
12:50	83.6	83.6	83.2	42	58.0	1	4	90	0.00	29.869 
12:55	84.0	84.0	83.8	43	59.1	2	6	112	0.00	29.868 
13:00	84.0	84.0	83.4	41	57.7	3	6	112	0.00	29.868 
13:05	84.0	84.0	83.8	43	59.1	2	6	90	0.00	29.865 
13:10	84.0	84.0	83.4	41	57.7	2	5	90	0.00	29.863 
13:15	84.0	84.0	83.8	43	59.1	3	6	112	0.00	29.860 
13:20	83.8	83.8	83.4	42	58.2	2	4	112	0.00	29.859 
13:25	84.0	84.0	83.4	41	57.7	2	6	112	0.00	29.857 
13:30	84.3	84.3	83.8	41	58.0	2	6	112	0.00	29.858 
13:35	84.1	84.1	83.6	41	57.8	3	6	90	0.00	29.860 
13:40	83.8	83.8	83.1	40	56.9	1	4	90	0.00	29.859 
13:45	83.2	83.2	82.5	40	56.3	3	9	68	0.00	29.859 
13:50	82.6	82.6	82.0	40	55.8	2	5	112	0.00	29.858 
13:55	82.2	82.2	81.7	41	56.1	2	4	112	0.00	29.859 
14:00	82.2	82.2	81.7	41	56.1	1	4	112	0.00	29.859 
14:05	82.2	82.2	81.9	42	56.8	1	4	90	0.00	29.859 
14:10	82.2	82.2	81.6	40	55.4	1	4	90	0.00	29.859 
14:15	82.2	82.2	81.7	41	56.1	1	5	135	0.00	29.859 
14:20	82.2	82.2	81.6	40	55.4	1	3	112	0.00	29.859 
14:25	82.2	82.2	81.5	39	54.7	1	4	112	0.00	29.858 
14:30	82.2	82.2	81.5	39	54.7	1	5	112	0.00	29.858 
14:35	82.2	82.2	81.6	40	55.4	1	3	112	0.00	29.856 
14:40	82.2	82.2	81.4	38	54.0	1	4	112	0.00	29.852 
14:45	82.4	82.4	81.8	40	55.6	0	2	112	0.00	29.847 
14:50	82.4	82.4	81.7	39	54.9	0	2	112	0.00	29.845 
14:55	82.8	82.8	82.0	39	55.3	1	3	112	0.00	29.841 
15:00	83.2	83.2	82.4	39	55.6	1	4	112	0.00	29.841 
15:05	83.4	83.4	82.7	40	56.5	1	6	112	0.00	29.842 
15:10	83.4	83.4	82.7	40	56.5	1	4	112	0.00	29.841 
15:15	83.4	83.4	82.6	39	55.8	1	5	90	0.00	29.841 
15:20	83.2	83.2	82.4	39	55.6	2	4	90	0.00	29.840 
15:25	82.8	82.8	81.9	38	54.6	3	5	90	0.00	29.840 
15:30	82.8	82.8	82.0	39	55.3	2	4	90	0.00	29.839 
15:35	83.0	83.0	82.2	39	55.5	2	7	90	0.00	29.839 
15:40	83.2	83.2	82.4	39	55.6	1	4	112	0.00	29.839 
15:45	83.4	83.4	82.6	39	55.8	2	7	112	0.00	29.838 
15:50	83.4	83.4	82.6	39	55.8	2	6	90	0.00	29.837 
15:55	83.2	83.2	82.4	39	55.6	2	5	90	0.00	29.836 
16:00	83.2	83.2	82.5	40	56.3	2	6	112	0.00	29.830 
16:05	83.2	83.2	82.5	40	56.3	2	6	90	0.00	29.831 
16:10	83.4	83.4	82.9	41	57.2	2	4	90	0.00	29.830 
16:15	83.8	83.8	83.1	40	56.9	2	5	112	0.00	29.828 
16:20	84.0	84.0	83.6	42	58.4	3	4	90	0.00	29.827 
16:25	84.0	84.0	84.5	47	61.6	3	8	90	0.00	29.826 
16:30	83.2	83.2	84.0	49	62.0	3	9	90	0.00	29.826 
16:35	82.8	82.8	83.7	50	62.2	3	10	90	0.00	29.826 
16:40	82.4	82.4	83.4	51	62.4	3	6	90	0.00	29.826 
16:45	81.8	81.8	82.8	52	62.4	4	9	90	0.00	29.827 
16:50	81.2	81.2	82.3	53	62.4	4	10	90	0.00	29.829 
16:55	80.9	80.9	82.0	53	62.1	4	9	90	0.00	29.830 
17:00	80.9	80.9	82.1	54	62.7	2	5	112	0.00	29.829 
17:05	80.7	80.7	81.9	54	62.5	3	7	112	0.00	29.828 
17:10	80.5	80.5	81.7	54	62.3	3	6	90	0.00	29.827 
17:15	80.3	80.3	81.6	55	62.6	3	7	90	0.00	29.828 
17:20	79.9	79.9	81.2	55	62.3	2	5	90	0.00	29.827 
17:25	79.9	79.9	81.3	56	62.8	2	5	90	0.00	29.827 
17:30	79.8	79.8	81.2	56	62.7	1	4	112	0.00	29.827 
17:35	79.6	79.6	81.1	57	63.0	2	5	112	0.00	29.826 
17:40	79.6	79.6	81.1	57	63.0	2	5	90	0.00	29.825 
17:45	79.4	79.4	80.9	57	62.8	2	6	112	0.00	29.825 
17:50	79.2	79.2	80.7	58	63.1	2	6	90	0.00	29.821 
17:55	79.0	79.0	80.5	58	62.9	2	4	90	0.00	29.819 
18:00	78.8	78.8	80.3	58	62.8	1	7	90	0.00	29.818 
18:05	78.6	78.6	80.1	58	62.6	3	7	90	0.00	29.815 
18:10	78.5	78.5	80.0	58	62.5	2	5	90	0.00	29.814 
18:15	78.1	78.1	79.7	59	62.6	2	5	112	0.00	29.813 
18:20	78.1	78.1	79.7	59	62.6	1	4	90	0.00	29.813 
18:25	77.9	77.9	79.5	59	62.4	2	5	112	0.00	29.812 
18:30	77.7	77.7	79.4	59	62.2	2	5	90	0.00	29.813 
18:35	77.6	77.6	79.3	60	62.6	1	3	90	0.00	29.815 
18:40	77.6	77.6	79.3	60	62.6	1	2	90	0.00	29.815 
18:45	77.4	77.4	79.1	60	62.4	1	3	90	0.00	29.816 
18:50	77.2	77.2	78.9	59	61.7	1	4	112	0.00	29.815 
18:55	77.0	77.0	78.8	59	61.6	1	2	112	0.00	29.814 
19:00	76.7	76.7	78.5	60	61.7	0	1	112	0.00	29.814 
19:05	76.5	76.5	78.4	61	62.0	0	2	112	0.00	29.810 
19:10	76.1	76.1	78.1	61	61.7	1	3	112	0.00	29.811 
19:15	76.0	76.0	78.0	62	62.0	0	1	112	0.00	29.811 
19:20	75.8	75.8	77.8	62	61.8	0	3	112	0.00	29.811 
19:25	75.4	75.4	77.5	62	61.5	0	1	112	0.00	29.812 
19:30	75.1	75.1	77.3	63	61.6	0	0	---	0.00	29.815 
19:35	74.7	74.7	74.7	64	61.7	0	0	---	0.00	29.817 
19:40	74.2	74.2	74.2	65	61.7	0	0	---	0.00	29.820 
19:45	73.9	73.9	73.9	66	61.8	0	1	112	0.00	29.823 
19:50	73.7	73.7	73.7	66	61.6	1	3	45	0.00	29.826 
19:55	73.7	73.7	73.7	66	61.6	2	4	68	0.00	29.827 
20:00	73.7	73.7	73.7	67	62.0	2	3	68	0.00	29.828 
20:05	73.5	73.5	73.5	67	61.9	2	5	90	0.00	29.828 
20:10	73.3	73.3	73.3	67	61.7	1	5	112	0.00	29.830 
20:15	73.2	73.2	73.2	68	62.0	1	3	90	0.00	29.831 
20:20	72.8	72.8	72.8	68	61.6	1	3	90	0.00	29.833 
20:25	72.7	72.7	72.7	69	61.9	1	2	90	0.00	29.833 
20:30	72.5	72.5	72.5	69	61.7	1	5	90	0.00	29.836 
20:35	72.1	72.1	72.1	69	61.4	2	4	90	0.00	29.839 
20:40	71.8	71.8	71.8	70	61.5	1	4	90	0.00	29.838 
20:45	71.5	71.5	71.5	70	61.2	0	2	68	0.00	29.839 
20:50	71.1	71.1	71.1	71	61.2	1	2	68	0.00	29.839 
20:55	70.8	70.8	70.8	72	61.3	1	2	68	0.00	29.840 
21:00	70.4	70.4	70.4	72	60.9	1	4	68	0.00	29.842 
21:05	70.3	70.3	70.3	73	61.2	1	3	90	0.00	29.839 
21:10	69.9	69.9	69.9	73	60.8	1	3	90	0.00	29.840 
21:15	69.8	69.8	69.8	73	60.7	2	4	90	0.00	29.840 
21:20	69.4	69.4	69.4	73	60.4	2	3	90	0.00	29.840 
21:25	69.3	69.3	69.3	74	60.6	1	3	68	0.00	29.842 
21:30	69.1	69.1	69.1	74	60.5	1	3	112	0.00	29.842 
21:35	68.9	68.9	68.9	74	60.3	2	5	90	0.00	29.843 
21:40	68.8	68.8	68.8	75	60.5	2	5	90	0.00	29.843 
21:45	68.6	68.6	68.6	75	60.3	2	4	90	0.00	29.844 
21:50	68.4	68.4	68.4	76	60.5	2	5	68	0.00	29.843 
21:55	68.3	68.3	68.3	77	60.8	2	9	112	0.00	29.844 
22:00	68.3	68.3	68.3	77	60.8	2	5	90	0.00	29.843 
22:05	68.1	68.1	68.1	77	60.6	1	4	90	0.00	29.841 
22:10	67.9	67.9	67.9	78	60.8	2	5	90	0.00	29.841 
22:15	67.8	67.8	67.8	78	60.7	1	3	90	0.00	29.841 
22:20	67.4	67.4	67.4	79	60.7	2	5	90	0.00	29.841 
22:25	67.3	67.3	67.3	80	60.9	2	7	90	0.00	29.842 
22:30	67.1	67.1	67.1	81	61.1	3	6	90	0.00	29.844 
22:35	66.9	66.9	66.9	81	60.9	2	4	90	0.00	29.845 
22:40	66.8	66.8	66.8	82	61.1	2	4	90	0.00	29.846 
22:45	66.6	66.6	66.6	82	60.9	1	4	68	0.00	29.847 
22:50	66.4	66.4	66.4	83	61.1	1	4	90	0.00	29.850 
22:55	66.3	66.3	66.3	83	61.0	0	2	90	0.00	29.849 
23:00	66.1	66.1	66.1	84	61.1	1	3	90	0.00	29.848 
23:05	66.0	66.0	66.0	84	61.0	2	5	90	0.00	29.843 
23:10	65.8	65.8	65.8	84	60.8	1	3	90	0.00	29.843 
23:15	65.6	65.6	65.6	85	61.0	1	3	90	0.00	29.840 
23:20	65.5	65.5	65.5	85	60.9	1	4	90	0.00	29.840 
23:25	65.2	65.2	65.2	86	60.9	2	4	90	0.00	29.840 
23:30	65.2	65.2	65.2	86	60.9	0	2	90	0.00	29.841 
23:35	65.0	65.0	65.0	86	60.7	1	3	90	0.00	29.842 
23:40	64.8	64.8	64.8	87	60.8	1	4	90	0.00	29.843 
23:45	64.7	64.7	64.7	87	60.7	0	2	90	0.00	29.846 
23:50	64.7	64.7	64.7	87	60.7	0	2	90	0.00	29.845 
23:55	64.5	64.5	64.5	88	60.9	1	4	90	0.00	29.845 

CoCoRaHS
IN-AL-39
A2 Web Hosting
Creative Commons License
GoDaddy
Look for:

loaded 2017-12-12 01:33:41 • last modified 2010-11-18 10:43:29
Privacy PolicyDisclaimer
• wx.awcolley.com is powered by PmWiki v.2002016 •
• all content (unless otherwise noted) © 2017 A W Colley